createdAt,value
2023-04-30T00:01:39.938Z,98571.75
2023-04-30T00:04:09.987Z,98570.09
2023-04-30T00:06:40.079Z,98568.84
2023-04-30T00:09:10.202Z,98573.91
2023-04-30T00:11:40.974Z,98578.13
2023-04-30T00:14:10.583Z,98562.78
2023-04-30T00:16:40.148Z,98568.22
2023-04-30T00:19:10.396Z,98570.00
2023-04-30T00:21:39.390Z,98564.78
2023-04-30T00:24:09.342Z,98572.44
2023-04-30T00:26:40.758Z,98570.84
2023-04-30T00:29:10.666Z,98576.06
2023-04-30T00:31:39.307Z,98570.19
2023-04-30T00:34:08.475Z,98579.06
2023-04-30T00:36:38.433Z,98570.38
2023-04-30T00:39:08.025Z,98565.13
2023-04-30T00:41:40.232Z,98568.75
2023-04-30T00:44:10.089Z,98569.56
2023-04-30T00:46:40.531Z,98571.38
2023-04-30T00:49:10.644Z,98566.28
2023-04-30T00:51:44.135Z,98574.34
2023-04-30T00:54:13.958Z,98569.47
2023-04-30T00:56:45.017Z,98566.66
2023-04-30T00:59:16.424Z,98560.59
2023-04-30T01:01:46.186Z,98565.06
2023-04-30T01:04:16.412Z,98562.75
2023-04-30T01:06:46.696Z,98558.34
2023-04-30T01:09:16.868Z,98555.94
2023-04-30T01:12:04.508Z,98555.09
2023-04-30T01:14:50.778Z,98556.09
2023-04-30T01:17:30.063Z,98548.06
2023-04-30T01:20:03.620Z,98553.66
2023-04-30T01:22:45.393Z,98549.78
2023-04-30T01:25:53.833Z,98554.56
2023-04-30T01:28:26.777Z,98556.34
2023-04-30T01:30:56.747Z,98560.63
2023-04-30T01:33:27.253Z,98553.56
2023-04-30T01:36:36.721Z,98559.78
2023-04-30T01:39:27.611Z,98561.44
2023-04-30T01:42:10.025Z,98564.06
2023-04-30T01:45:04.265Z,98560.63
2023-04-30T01:47:41.609Z,98554.34
2023-04-30T01:50:29.626Z,98552.75
2023-04-30T01:53:03.346Z,98554.56
2023-04-30T01:55:43.149Z,98560.63
2023-04-30T01:58:16.960Z,98564.84
2023-04-30T02:00:48.987Z,98559.59
2023-04-30T02:03:19.197Z,98556.19
2023-04-30T02:05:49.476Z,98561.44
2023-04-30T02:08:20.100Z,98554.34
2023-04-30T02:10:49.772Z,98563.22
2023-04-30T02:13:19.730Z,98550.31
2023-04-30T02:15:52.283Z,98558.16
2023-04-30T02:18:23.044Z,98565.19
2023-04-30T02:20:53.534Z,98568.81
2023-04-30T02:23:24.051Z,98567.00
2023-04-30T02:25:54.558Z,98559.34
2023-04-30T02:28:25.019Z,98553.91
2023-04-30T02:30:56.666Z,98558.34
2023-04-30T02:33:27.376Z,98554.47
2023-04-30T02:35:57.770Z,98558.69
2023-04-30T02:38:27.762Z,98561.31
2023-04-30T02:40:57.680Z,98555.09
2023-04-30T02:43:27.305Z,98564.75
2023-04-30T02:45:58.705Z,98563.91
2023-04-30T02:48:29.350Z,98561.66
2023-04-30T02:50:59.786Z,98569.53
2023-04-30T02:53:29.938Z,98564.28
2023-04-30T02:56:00.693Z,98561.03
2023-04-30T02:58:31.134Z,98563.81
2023-04-30T03:01:02.549Z,98554.53
2023-04-30T03:03:33.112Z,98552.91
2023-04-30T03:06:02.891Z,98547.66
2023-04-30T03:08:32.989Z,98551.91
2023-04-30T03:11:02.715Z,98552.91
2023-04-30T03:13:31.530Z,98556.88
2023-04-30T03:16:05.374Z,98548.84
2023-04-30T03:18:35.017Z,98553.63
2023-04-30T03:21:04.975Z,98540.88
2023-04-30T03:23:34.420Z,98542.88
2023-04-30T03:26:04.313Z,98546.75
2023-04-30T03:28:34.222Z,98545.97
2023-04-30T03:31:06.996Z,98552.34
2023-04-30T03:33:37.311Z,98540.25
2023-04-30T03:36:09.996Z,98545.66
2023-04-30T03:38:40.387Z,98543.88
2023-04-30T03:41:10.810Z,98543.88
2023-04-30T03:43:41.714Z,98543.88
2023-04-30T03:46:12.686Z,98541.06
2023-04-30T03:48:42.880Z,98542.88
2023-04-30T03:51:13.015Z,98544.69
2023-04-30T03:53:43.574Z,98548.13
2023-04-30T03:56:14.563Z,98550.72
2023-04-30T03:58:45.163Z,98549.09
2023-04-30T04:01:16.876Z,98549.91
2023-04-30T04:03:46.873Z,98546.47
2023-04-30T04:06:15.952Z,98541.88
2023-04-30T04:08:46.017Z,98548.13
2023-04-30T04:11:15.772Z,98553.50
2023-04-30T04:13:45.273Z,98558.75
2023-04-30T04:16:16.225Z,98553.50
2023-04-30T04:18:46.711Z,98542.06
2023-04-30T04:21:18.006Z,98549.09
2023-04-30T04:23:47.966Z,98549.09
2023-04-30T04:26:20.323Z,98551.72
2023-04-30T04:28:50.886Z,98556.28
2023-04-30T04:31:23.205Z,98548.44
2023-04-30T04:33:58.185Z,98556.28
2023-04-30T04:36:29.292Z,98557.78
2023-04-30T04:39:02.523Z,98552.34
2023-04-30T04:41:32.731Z,98554.97
2023-04-30T04:44:04.157Z,98553.97
2023-04-30T04:46:39.166Z,98558.22
2023-04-30T04:49:10.282Z,98552.19
2023-04-30T04:51:41.339Z,98554.59
2023-04-30T04:54:12.130Z,98560.03
2023-04-30T04:56:43.557Z,98559.50
2023-04-30T04:59:13.069Z,98556.88
2023-04-30T05:01:44.033Z,98562.91
2023-04-30T05:04:14.668Z,98569.97
2023-04-30T05:06:44.708Z,98563.72
2023-04-30T05:09:15.744Z,98575.47
2023-04-30T05:11:46.867Z,98567.63
2023-04-30T05:14:17.002Z,98566.63
2023-04-30T05:16:49.299Z,98558.59
2023-04-30T05:19:20.289Z,98564.63
2023-04-30T05:21:50.809Z,98570.84
2023-04-30T05:24:20.790Z,98564.63
2023-04-30T05:26:50.098Z,98564.47
2023-04-30T05:29:20.009Z,98565.91
2023-04-30T05:31:51.929Z,98559.25
2023-04-30T05:34:21.875Z,98560.06
2023-04-30T05:36:52.310Z,98562.13
2023-04-30T05:39:22.633Z,98558.16
2023-04-30T05:41:53.499Z,98558.63
2023-04-30T05:44:24.006Z,98563.50
2023-04-30T05:46:55.962Z,98564.31
2023-04-30T05:49:25.717Z,98556.09
2023-04-30T05:51:55.795Z,98566.41
2023-04-30T05:54:26.109Z,98563.13
2023-04-30T05:56:58.514Z,98564.59
2023-04-30T05:59:27.386Z,98566.41
2023-04-30T06:02:00.342Z,98559.81
2023-04-30T06:04:29.934Z,98561.63
2023-04-30T06:07:00.647Z,98555.81
2023-04-30T06:09:30.960Z,98562.31
2023-04-30T06:12:03.141Z,98560.97
2023-04-30T06:14:33.994Z,98552.13
2023-04-30T06:17:05.999Z,98555.56
2023-04-30T06:19:36.865Z,98556.19
2023-04-30T06:22:07.146Z,98556.38
2023-04-30T06:24:36.266Z,98558.00
2023-04-30T06:27:07.504Z,98563.22
2023-04-30T06:29:37.723Z,98565.22
2023-04-30T06:32:09.524Z,98560.97
2023-04-30T06:34:40.570Z,98553.78
2023-04-30T06:37:13.184Z,98551.31
2023-04-30T06:39:42.348Z,98551.78
2023-04-30T06:42:12.043Z,98551.94
2023-04-30T06:44:43.018Z,98563.59
2023-04-30T06:47:13.597Z,98554.09
2023-04-30T06:49:44.039Z,98552.94
2023-04-30T06:52:14.169Z,98552.75
2023-04-30T06:54:43.923Z,98550.78
2023-04-30T06:57:14.681Z,98547.97
2023-04-30T06:59:45.124Z,98552.69
2023-04-30T07:02:16.741Z,98551.34
2023-04-30T07:04:46.395Z,98554.41
2023-04-30T07:07:16.804Z,98549.78
2023-04-30T07:09:50.326Z,98562.53
2023-04-30T07:12:23.150Z,98547.00
2023-04-30T07:14:52.645Z,98550.25
2023-04-30T07:17:24.194Z,98556.75
2023-04-30T07:19:56.079Z,98555.41
2023-04-30T07:22:25.407Z,98549.78
2023-04-30T07:24:56.690Z,98549.63
2023-04-30T07:27:25.336Z,98556.28
2023-04-30T07:29:56.327Z,98557.56
2023-04-30T07:32:28.122Z,98559.81
2023-04-30T07:34:58.725Z,98547.75
2023-04-30T07:37:29.054Z,98550.81
2023-04-30T07:39:58.618Z,98550.44
2023-04-30T07:42:28.199Z,98550.72
2023-04-30T07:44:56.898Z,98546.75
2023-04-30T07:47:28.445Z,98546.00
2023-04-30T07:49:59.090Z,98547.63
2023-04-30T07:52:28.670Z,98545.25
2023-04-30T07:54:57.646Z,98544.25
2023-04-30T07:57:28.358Z,98546.66
2023-04-30T07:59:58.560Z,98550.75
2023-04-30T08:02:29.222Z,98559.88
2023-04-30T08:04:59.369Z,98563.13
2023-04-30T08:07:29.037Z,98561.94
2023-04-30T08:09:57.968Z,98556.69
2023-04-30T08:12:27.120Z,98558.53
2023-04-30T08:15:02.185Z,98556.00
2023-04-30T08:17:33.578Z,98554.25
2023-04-30T08:20:03.247Z,98562.38
2023-04-30T08:22:33.974Z,98557.72
2023-04-30T08:25:03.707Z,98552.31
2023-04-30T08:27:33.935Z,98550.94
2023-04-30T08:30:03.883Z,98552.38
2023-04-30T08:32:38.875Z,98541.09
2023-04-30T08:35:09.753Z,98553.28
2023-04-30T08:37:38.735Z,98551.72
2023-04-30T08:40:12.740Z,98547.97
2023-04-30T08:42:52.876Z,98547.84
2023-04-30T08:45:24.414Z,98541.44
2023-04-30T08:47:55.859Z,98548.94
2023-04-30T08:50:24.810Z,98546.53
2023-04-30T08:52:53.289Z,98550.25
2023-04-30T08:55:23.045Z,98551.50
2023-04-30T08:57:52.444Z,98559.22
2023-04-30T09:00:21.135Z,98553.56
2023-04-30T09:02:54.612Z,98547.13
2023-04-30T09:05:23.652Z,98553.25
2023-04-30T09:08:02.964Z,98552.44
2023-04-30T09:10:35.144Z,98546.44
2023-04-30T09:13:07.673Z,98546.47
2023-04-30T09:15:38.760Z,98536.75
2023-04-30T09:18:18.045Z,98550.94
2023-04-30T09:21:01.423Z,98551.13
2023-04-30T09:23:32.235Z,98547.69
2023-04-30T09:26:01.939Z,98544.84
2023-04-30T09:28:32.327Z,98550.75
2023-04-30T09:31:01.214Z,98558.84
2023-04-30T09:33:47.894Z,98556.84
2023-04-30T09:36:18.616Z,98555.66
2023-04-30T09:38:49.061Z,98540.94
2023-04-30T09:41:26.929Z,98540.97
2023-04-30T09:43:55.887Z,98543.78
2023-04-30T09:46:33.572Z,98541.38
2023-04-30T09:49:07.325Z,98550.28
2023-04-30T09:51:37.544Z,98552.69
2023-04-30T09:54:13.778Z,98535.69
2023-04-30T09:56:43.673Z,98536.09
2023-04-30T09:59:15.664Z,98533.06
2023-04-30T10:01:45.533Z,98534.09
2023-04-30T10:04:16.803Z,98529.03
2023-04-30T10:06:47.798Z,98531.69
2023-04-30T10:09:18.466Z,98528.22
2023-04-30T10:11:48.440Z,98526.59
2023-04-30T10:14:21.606Z,98524.59
2023-04-30T10:16:59.427Z,98527.63
2023-04-30T10:19:38.050Z,98521.16
2023-04-30T10:22:08.836Z,98522.38
2023-04-30T10:24:39.125Z,98506.97
2023-04-30T10:27:08.720Z,98512.22
2023-04-30T10:29:38.051Z,98510.19
2023-04-30T10:32:09.921Z,98516.69
2023-04-30T10:34:55.072Z,98515.06
2023-04-30T10:37:34.514Z,98520.34
2023-04-30T10:40:05.278Z,98517.09
2023-04-30T10:42:38.014Z,98511.63
2023-04-30T10:45:11.733Z,98503.34
2023-04-30T10:47:46.250Z,98504.13
2023-04-30T10:50:18.085Z,98503.13
2023-04-30T10:52:47.682Z,98494.81
2023-04-30T10:55:19.537Z,98487.94
2023-04-30T10:57:51.587Z,98483.84
2023-04-30T11:00:26.408Z,98453.88
2023-04-30T11:03:04.047Z,98485.06
2023-04-30T11:05:39.571Z,98480.59
2023-04-30T11:08:13.189Z,98483.22
2023-04-30T11:11:00.696Z,98475.72
2023-04-30T11:13:29.628Z,98474.53
2023-04-30T11:16:06.093Z,98465.56
2023-04-30T11:18:34.889Z,98473.69
2023-04-30T11:21:07.320Z,98471.63
2023-04-30T11:23:41.599Z,98471.22
2023-04-30T11:26:11.300Z,98471.41
2023-04-30T11:28:40.102Z,98471.59
2023-04-30T11:31:09.743Z,98473.66
2023-04-30T11:33:42.097Z,98470.19
2023-04-30T11:36:12.510Z,98471.19
2023-04-30T11:38:43.383Z,98472.59
2023-04-30T11:41:15.049Z,98467.53
2023-04-30T11:43:45.577Z,98465.44
2023-04-30T11:46:19.025Z,98452.84
2023-04-30T11:48:49.817Z,98448.75
2023-04-30T11:51:23.135Z,98447.91
2023-04-30T11:53:53.732Z,98452.94
2023-04-30T11:56:25.394Z,98438.31
2023-04-30T11:58:57.392Z,98441.94
2023-04-30T12:01:29.549Z,98440.06
2023-04-30T12:03:59.570Z,98442.03
2023-04-30T12:06:32.610Z,98437.38
2023-04-30T12:09:08.368Z,98431.44
2023-04-30T12:11:38.298Z,98424.28
2023-04-30T12:14:10.791Z,98433.19
2023-04-30T12:16:49.263Z,98427.03
2023-04-30T12:19:21.312Z,98433.69
2023-04-30T12:21:55.026Z,98424.31
2023-04-30T12:24:28.828Z,98414.19
2023-04-30T12:27:01.981Z,98424.75
2023-04-30T12:29:31.147Z,98425.00
2023-04-30T12:32:02.472Z,98422.75
2023-04-30T12:34:33.833Z,98418.69
2023-04-30T12:37:05.500Z,98422.13
2023-04-30T12:39:36.644Z,98424.31
2023-04-30T12:42:06.881Z,98429.97
2023-04-30T12:44:45.733Z,98423.88
2023-04-30T12:47:16.233Z,98427.56
2023-04-30T12:49:48.264Z,98411.28
2023-04-30T12:52:18.681Z,98412.69
2023-04-30T12:54:48.158Z,98408.16
2023-04-30T12:57:17.681Z,98407.13
2023-04-30T13:00:01.509Z,98416.50
2023-04-30T13:02:32.792Z,98410.84
2023-04-30T13:05:03.068Z,98408.41
2023-04-30T13:07:41.325Z,98405.56
2023-04-30T13:10:14.431Z,98401.25
2023-04-30T13:12:44.957Z,98401.84
2023-04-30T13:15:14.498Z,98396.25
2023-04-30T13:17:45.366Z,98394.00
2023-04-30T13:20:16.844Z,98385.41
2023-04-30T13:22:47.653Z,98388.00
2023-04-30T13:25:17.512Z,98388.97
2023-04-30T13:27:46.324Z,98393.81
2023-04-30T13:30:16.402Z,98389.19
2023-04-30T13:32:46.729Z,98401.94
2023-04-30T13:35:16.337Z,98392.56
2023-04-30T13:37:48.138Z,98382.72
2023-04-30T13:40:17.714Z,98391.00
2023-04-30T13:42:48.897Z,98379.19
2023-04-30T13:45:17.987Z,98371.31
2023-04-30T13:47:47.965Z,98363.31
2023-04-30T13:50:18.172Z,98365.19
2023-04-30T13:52:49.378Z,98362.84
2023-04-30T13:55:18.760Z,98360.56
2023-04-30T13:57:48.223Z,98356.09
2023-04-30T14:00:22.167Z,98350.81
2023-04-30T14:02:52.892Z,98344.78
2023-04-30T14:05:23.067Z,98342.25
2023-04-30T14:07:55.038Z,98350.53
2023-04-30T14:10:25.035Z,98347.91
2023-04-30T14:12:56.039Z,98342.53
2023-04-30T14:15:25.830Z,98337.50
2023-04-30T14:17:55.907Z,98333.38
2023-04-30T14:20:26.730Z,98328.22
2023-04-30T14:22:59.418Z,98334.88
2023-04-30T14:25:31.078Z,98325.56
2023-04-30T14:28:01.397Z,98326.47
2023-04-30T14:30:33.512Z,98326.47
2023-04-30T14:33:03.223Z,98329.25
2023-04-30T14:35:34.127Z,98319.34
2023-04-30T14:38:06.163Z,98313.16
2023-04-30T14:40:36.273Z,98312.00
2023-04-30T14:43:08.725Z,98310.53
2023-04-30T14:45:38.867Z,98307.41
2023-04-30T14:48:10.201Z,98310.31
2023-04-30T14:50:39.987Z,98307.41
2023-04-30T14:53:12.102Z,98306.03
2023-04-30T14:55:41.572Z,98316.16
2023-04-30T14:58:12.056Z,98316.28
2023-04-30T15:00:40.987Z,98315.47
2023-04-30T15:03:12.088Z,98303.84
2023-04-30T15:05:43.034Z,98299.72
2023-04-30T15:08:13.424Z,98297.97
2023-04-30T15:10:43.008Z,98287.28
2023-04-30T15:13:14.237Z,98290.25
2023-04-30T15:15:47.630Z,98288.88
2023-04-30T15:18:16.765Z,98298.00
2023-04-30T15:20:47.215Z,98296.25
2023-04-30T15:23:18.612Z,98292.22
2023-04-30T15:25:48.167Z,98292.22
2023-04-30T15:28:17.410Z,98287.97
2023-04-30T15:30:47.278Z,98283.69
2023-04-30T15:33:19.343Z,98280.03
2023-04-30T15:35:49.922Z,98271.59
2023-04-30T15:38:21.886Z,98273.91
2023-04-30T15:40:51.947Z,98275.06
2023-04-30T15:43:23.975Z,98264.81
2023-04-30T15:45:52.963Z,98261.81
2023-04-30T15:48:22.356Z,98260.53
2023-04-30T15:50:52.532Z,98260.91
2023-04-30T15:53:23.429Z,98265.41
2023-04-30T15:55:53.320Z,98256.88
2023-04-30T15:58:23.503Z,98239.72
2023-04-30T16:00:52.602Z,98242.97
2023-04-30T16:03:22.279Z,98249.63
2023-04-30T16:05:52.474Z,98254.59
2023-04-30T16:08:22.809Z,98263.66
2023-04-30T16:10:52.849Z,98257.69
2023-04-30T16:13:22.231Z,98250.19
2023-04-30T16:15:52.664Z,98247.56
2023-04-30T16:18:23.608Z,98240.88
2023-04-30T16:20:53.011Z,98241.09
2023-04-30T16:23:23.433Z,98236.41
2023-04-30T16:25:53.401Z,98231.78
2023-04-30T16:28:24.495Z,98231.22
2023-04-30T16:30:54.181Z,98234.44
2023-04-30T16:33:25.183Z,98236.97
2023-04-30T16:35:55.853Z,98233.19
2023-04-30T16:38:27.767Z,98230.06
2023-04-30T16:40:57.284Z,98225.94
2023-04-30T16:43:27.367Z,98225.94
2023-04-30T16:45:57.031Z,98225.69
2023-04-30T16:48:27.211Z,98222.25
2023-04-30T16:50:57.135Z,98212.91
2023-04-30T16:53:28.444Z,98211.53
2023-04-30T16:55:57.006Z,98215.00
2023-04-30T16:58:27.137Z,98218.09
2023-04-30T17:00:57.532Z,98211.41
2023-04-30T17:03:26.358Z,98214.66
2023-04-30T17:05:56.164Z,98206.94
2023-04-30T17:08:27.116Z,98212.69
2023-04-30T17:10:56.783Z,98208.53
2023-04-30T17:13:26.337Z,98210.41
2023-04-30T17:16:01.703Z,98215.44
2023-04-30T17:18:31.994Z,98207.41
2023-04-30T17:21:01.012Z,98201.19
2023-04-30T17:23:32.495Z,98204.63
2023-04-30T17:26:02.079Z,98203.59
2023-04-30T17:28:30.465Z,98203.25
2023-04-30T17:31:03.881Z,98194.38
2023-04-30T17:33:33.326Z,98197.47
2023-04-30T17:36:02.800Z,98201.75
2023-04-30T17:38:32.591Z,98200.38
2023-04-30T17:41:02.499Z,98198.41
2023-04-30T17:43:32.702Z,98201.25
2023-04-30T17:46:02.911Z,98194.59
2023-04-30T17:48:32.348Z,98204.63
2023-04-30T17:51:02.338Z,98198.59
2023-04-30T17:53:33.389Z,98205.50
2023-04-30T17:56:03.723Z,98199.63
2023-04-30T17:58:33.343Z,98203.38
2023-04-30T18:01:03.646Z,98207.88
2023-04-30T18:03:33.972Z,98204.66
2023-04-30T18:06:04.247Z,98203.38
2023-04-30T18:08:35.135Z,98207.63
2023-04-30T18:11:04.156Z,98195.66
2023-04-30T18:13:33.096Z,98202.06
2023-04-30T18:16:02.219Z,98198.72
2023-04-30T18:18:32.273Z,98202.19
2023-04-30T18:21:01.787Z,98207.09
2023-04-30T18:23:31.784Z,98214.09
2023-04-30T18:26:03.100Z,98208.91
2023-04-30T18:28:33.991Z,98213.91
2023-04-30T18:31:03.445Z,98209.75
2023-04-30T18:33:32.992Z,98216.59
2023-04-30T18:36:05.586Z,98217.91
2023-04-30T18:38:35.736Z,98217.16
2023-04-30T18:41:08.202Z,98216.03
2023-04-30T18:43:40.554Z,98218.03
2023-04-30T18:46:10.727Z,98223.00
2023-04-30T18:48:41.082Z,98223.72
2023-04-30T18:51:10.088Z,98224.22
2023-04-30T18:53:39.055Z,98234.03
2023-04-30T18:56:10.912Z,98222.72
2023-04-30T18:58:41.340Z,98228.69
2023-04-30T19:01:11.043Z,98229.03
2023-04-30T19:03:42.041Z,98226.28
2023-04-30T19:06:11.800Z,98237.25
2023-04-30T19:08:45.586Z,98231.81
2023-04-30T19:11:19.120Z,98234.28
2023-04-30T19:13:49.103Z,98233.69
2023-04-30T19:16:18.685Z,98232.47
2023-04-30T19:18:47.585Z,98235.00
2023-04-30T19:21:18.176Z,98233.66
2023-04-30T19:23:47.309Z,98234.69
2023-04-30T19:26:18.222Z,98231.81
2023-04-30T19:28:48.975Z,98236.72
2023-04-30T19:31:18.681Z,98238.75
2023-04-30T19:33:48.164Z,98237.34
2023-04-30T19:36:19.259Z,98241.47
2023-04-30T19:38:48.690Z,98241.06
2023-04-30T19:41:18.993Z,98244.94
2023-04-30T19:43:47.951Z,98240.56
2023-04-30T19:46:17.344Z,98245.00
2023-04-30T19:48:47.605Z,98251.88
2023-04-30T19:51:17.269Z,98246.00
2023-04-30T19:53:47.845Z,98248.88
2023-04-30T19:56:19.290Z,98245.63
2023-04-30T19:58:49.065Z,98248.06
2023-04-30T20:01:19.599Z,98242.59
2023-04-30T20:03:50.284Z,98249.88
2023-04-30T20:06:20.596Z,98246.84
2023-04-30T20:08:49.443Z,98248.91
2023-04-30T20:11:23.392Z,98241.84
2023-04-30T20:13:51.930Z,98253.53
2023-04-30T20:16:22.438Z,98257.97
2023-04-30T20:18:51.465Z,98249.31
2023-04-30T20:21:25.077Z,98251.13
2023-04-30T20:23:55.200Z,98250.50
2023-04-30T20:26:27.382Z,98251.75
2023-04-30T20:28:57.433Z,98249.50
2023-04-30T20:31:31.707Z,98259.38
2023-04-30T20:34:02.291Z,98250.28
2023-04-30T20:36:32.880Z,98247.06
2023-04-30T20:39:01.823Z,98247.25
2023-04-30T20:41:33.003Z,98247.47
2023-04-30T20:44:02.060Z,98249.88
2023-04-30T20:46:32.833Z,98253.50
2023-04-30T20:49:05.762Z,98250.03
2023-04-30T20:51:34.664Z,98249.84
2023-04-30T20:54:03.850Z,98246.81
2023-04-30T20:56:34.273Z,98244.94
2023-04-30T20:59:05.347Z,98248.53
2023-04-30T21:01:34.472Z,98240.03
2023-04-30T21:04:05.271Z,98251.56
2023-04-30T21:06:34.857Z,98254.94
2023-04-30T21:09:04.615Z,98250.91
2023-04-30T21:11:35.108Z,98250.91
2023-04-30T21:14:04.715Z,98249.06
2023-04-30T21:16:34.168Z,98245.41
2023-04-30T21:19:04.342Z,98251.00
2023-04-30T21:21:34.424Z,98247.16
2023-04-30T21:24:05.168Z,98241.16
2023-04-30T21:26:35.539Z,98244.63
2023-04-30T21:29:05.006Z,98242.75
2023-04-30T21:31:34.871Z,98235.09
2023-04-30T21:34:04.354Z,98239.50
2023-04-30T21:36:35.806Z,98235.44
2023-04-30T21:39:06.993Z,98235.22
2023-04-30T21:41:39.628Z,98239.03
2023-04-30T21:44:08.694Z,98240.16
2023-04-30T21:46:38.678Z,98236.16
2023-04-30T21:49:08.521Z,98232.75
2023-04-30T21:51:38.369Z,98229.13
2023-04-30T21:54:07.866Z,98232.53
2023-04-30T21:56:40.357Z,98226.09
2023-04-30T21:59:09.704Z,98221.25
2023-04-30T22:01:38.941Z,98231.34
2023-04-30T22:04:08.879Z,98228.75
2023-04-30T22:06:37.872Z,98212.41
2023-04-30T22:09:06.770Z,98208.38
2023-04-30T22:11:37.075Z,98213.63
2023-04-30T22:14:07.398Z,98206.75
2023-04-30T22:16:36.886Z,98201.31
2023-04-30T22:19:05.912Z,98200.44
2023-04-30T22:21:34.925Z,98217.78
2023-04-30T22:24:04.470Z,98206.53
2023-04-30T22:26:34.533Z,98201.09
2023-04-30T22:29:06.052Z,98201.25
2023-04-30T22:31:36.026Z,98205.84
2023-04-30T22:34:07.366Z,98209.88
2023-04-30T22:36:37.133Z,98205.75
2023-04-30T22:39:07.766Z,98197.16
2023-04-30T22:41:38.548Z,98200.97
2023-04-30T22:44:10.281Z,98200.97
2023-04-30T22:46:40.641Z,98192.22
2023-04-30T22:49:19.972Z,98198.06
2023-04-30T22:51:57.214Z,98195.59
2023-04-30T22:54:26.742Z,98196.84
2023-04-30T22:56:56.021Z,98192.41
2023-04-30T22:59:26.936Z,98199.38
2023-04-30T23:01:57.792Z,98199.16
2023-04-30T23:04:28.497Z,98196.53
2023-04-30T23:06:57.233Z,98196.75
2023-04-30T23:09:26.561Z,98193.44
2023-04-30T23:11:57.902Z,98191.78
2023-04-30T23:14:28.232Z,98198.25
2023-04-30T23:16:58.170Z,98197.16
2023-04-30T23:19:28.011Z,98194.47
2023-04-30T23:21:57.544Z,98192.91
2023-04-30T23:24:27.863Z,98185.97
2023-04-30T23:26:57.799Z,98193.63
2023-04-30T23:29:27.857Z,98185.44
2023-04-30T23:31:56.854Z,98189.50
2023-04-30T23:34:27.077Z,98183.16
2023-04-30T23:36:56.692Z,98184.13
2023-04-30T23:39:25.679Z,98183.06
2023-04-30T23:41:56.213Z,98181.09
2023-04-30T23:44:26.964Z,98182.31
2023-04-30T23:46:57.020Z,98177.09
2023-04-30T23:49:27.658Z,98166.56
2023-04-30T23:51:58.432Z,98177.72
2023-04-30T23:54:28.292Z,98169.25
2023-04-30T23:56:59.428Z,98172.00
2023-04-30T23:59:29.783Z,98169.00
